Main page
METAR-TAF:

METAR-TAF

Airports :

Exeter Airport

Exeter, England

latitude: 50-44N, longitude: 003-25W, elevation: 30 m

Current weather observation

The report was made 44 minutes ago, at 08:20 UTC
Wind 8 kt from the North
Temperature 3°C
Humidity 87%
Pressure 1025 hPa
Visibility 10 km or more
no clouds below 1500 m and no cumulonimbus

METAR: EGTE 180820Z 36008KT CAVOK 03/01 Q1025

Time: 09:04 (09:04 UTC)

Forecast

The report was made 1 hour and 0 minutes ago, at 08:04 UTC
Forecast valid from 18 at 09 UTC to 18 at 18 UTC
Wind 9 kt from the Northeast
Visibility 10 km or more
no clouds below 1500 m and no cumulonimbus
Probability 30%
from 18 at 16 UTC to 18 at 18 UTC
Visibility: 8000 m

TAF: EGTE 180804Z 1809/1818 04009KT CAVOK PROB30 1816/1818 8000

Weather observations and forecasts of more than 4000 airports (METAR and TAF reports).

The available stations are represented by yellow and red dots on the map.

Hover mouse over dot to see the name of the station.

Then click to see weather observations and forecasts.

To change the map : click on the green buttons with a black cross to zoom in, on the green button with a dash to zoom out, or on the green arrows for adjacent maps.


METAR-TAF: